createdAt,value
2022-10-12T00:00:36.680Z,50.20
2022-10-12T00:03:38.599Z,38.85
2022-10-12T00:06:40.163Z,38.45
2022-10-12T00:09:41.838Z,38.83
2022-10-12T00:12:43.434Z,35.65
2022-10-12T00:15:45.049Z,35.38
2022-10-12T00:18:54.087Z,39.20
2022-10-12T00:21:55.632Z,59.05
2022-10-12T00:24:57.180Z,53.85
2022-10-12T00:27:58.719Z,49.63
2022-10-12T00:31:01.292Z,53.08
2022-10-12T00:34:03.659Z,44.40
2022-10-12T00:37:05.245Z,47.58
2022-10-12T00:40:07.335Z,34.10
2022-10-12T00:43:34.090Z,36.47
2022-10-12T00:46:46.544Z,31.88
2022-10-12T00:50:20.819Z,31.33
2022-10-12T00:53:28.381Z,34.67
2022-10-12T00:56:34.428Z,30.52
2022-10-12T00:59:44.248Z,30.05
2022-10-12T01:02:48.898Z,32.42
2022-10-12T01:05:50.618Z,26.60
2022-10-12T01:08:54.950Z,33.28
2022-10-12T01:11:57.849Z,31.63
2022-10-12T01:15:02.353Z,31.38
2022-10-12T01:18:18.803Z,27.40
2022-10-12T01:21:22.479Z,30.92
2022-10-12T01:24:42.737Z,32.55
2022-10-12T01:27:51.948Z,34.83
2022-10-12T01:31:02.011Z,25.83
2022-10-12T01:34:18.113Z,27.75
2022-10-12T01:37:42.658Z,36.05
2022-10-12T01:40:56.819Z,31.40
2022-10-12T01:43:58.354Z,28.23
2022-10-12T01:46:59.964Z,26.40
2022-10-12T01:50:04.180Z,24.30
2022-10-12T01:53:24.138Z,23.77
2022-10-12T01:56:42.245Z,22.23
2022-10-12T01:59:54.991Z,24.45
2022-10-12T02:03:33.071Z,22.25
2022-10-12T02:06:43.745Z,22.73
2022-10-12T02:09:45.635Z,29.70
2022-10-12T02:12:49.427Z,19.83
2022-10-12T02:15:53.136Z,17.65
2022-10-12T02:18:57.465Z,21.02
2022-10-12T02:22:04.249Z,32.47
2022-10-12T02:25:11.750Z,27.85
2022-10-12T02:28:17.515Z,26.80
2022-10-12T02:31:26.269Z,26.85
2022-10-12T02:34:57.990Z,27.52
2022-10-12T02:38:24.511Z,26.48
2022-10-12T02:41:33.219Z,30.85
2022-10-12T02:44:38.876Z,24.70
2022-10-12T02:47:42.237Z,24.42
2022-10-12T02:50:44.731Z,22.20
2022-10-12T02:53:46.907Z,28.17
2022-10-12T02:56:48.553Z,26.88
2022-10-12T02:59:50.136Z,30.95
2022-10-12T03:02:51.675Z,22.80
2022-10-12T03:05:53.279Z,27.23
2022-10-12T03:08:56.979Z,27.45
2022-10-12T03:11:58.634Z,23.80
2022-10-12T03:15:00.173Z,29.20
2022-10-12T03:18:01.734Z,33.92
2022-10-12T03:21:03.734Z,25.13
2022-10-12T03:24:05.530Z,21.70
2022-10-12T03:27:07.067Z,25.85
2022-10-12T03:30:11.276Z,19.33
2022-10-12T03:33:13.159Z,27.90
2022-10-12T03:36:14.721Z,21.58
2022-10-12T03:39:16.284Z,19.10
2022-10-12T03:42:17.921Z,24.42
2022-10-12T03:45:19.479Z,27.45
2022-10-12T03:48:21.021Z,27.35
2022-10-12T03:51:22.633Z,20.77
2022-10-12T03:54:24.171Z,26.67
2022-10-12T03:57:25.757Z,25.08
2022-10-12T04:00:28.460Z,19.80
2022-10-12T04:03:30.103Z,25.90
2022-10-12T04:06:31.662Z,23.65
2022-10-12T04:09:33.220Z,26.20
2022-10-12T04:12:34.763Z,25.95
2022-10-12T04:15:36.769Z,23.73
2022-10-12T04:18:38.499Z,24.77
2022-10-12T04:21:40.183Z,23.80
2022-10-12T04:24:41.777Z,27.60
2022-10-12T04:27:43.385Z,21.92
2022-10-12T04:30:45.974Z,24.00
2022-10-12T04:33:47.771Z,25.63
2022-10-12T04:36:49.869Z,24.63
2022-10-12T04:39:51.420Z,26.08
2022-10-12T04:42:53.099Z,23.48
2022-10-12T04:46:01.142Z,25.85
2022-10-12T04:49:05.576Z,26.65
2022-10-12T04:52:07.158Z,19.63
2022-10-12T04:55:08.980Z,20.95
2022-10-12T04:58:10.617Z,27.52
2022-10-12T05:01:12.250Z,19.10
2022-10-12T05:04:13.806Z,17.73
2022-10-12T05:07:15.400Z,23.92
2022-10-12T05:10:17.118Z,19.02
2022-10-12T05:13:19.201Z,20.33
2022-10-12T05:16:20.740Z,19.27
2022-10-12T05:19:22.304Z,22.90
2022-10-12T05:22:23.934Z,28.83
2022-10-12T05:25:25.628Z,27.88
2022-10-12T05:28:27.194Z,19.92
2022-10-12T05:31:28.858Z,24.98
2022-10-12T05:34:30.485Z,24.70
2022-10-12T05:37:33.647Z,26.00
2022-10-12T05:40:35.200Z,21.27
2022-10-12T05:43:36.718Z,22.90
2022-10-12T05:46:38.265Z,27.55
2022-10-12T05:49:39.775Z,24.13
2022-10-12T05:52:41.469Z,33.35
2022-10-12T05:55:55.668Z,30.65
2022-10-12T05:58:57.298Z,39.17
2022-10-12T06:01:58.984Z,33.25
2022-10-12T06:05:00.908Z,42.47
2022-10-12T06:08:02.441Z,40.15
2022-10-12T06:11:04.285Z,40.80
2022-10-12T06:14:06.132Z,32.30
2022-10-12T06:17:09.497Z,40.72
2022-10-12T06:20:11.326Z,35.05
2022-10-12T06:23:12.903Z,36.25
2022-10-12T06:26:14.552Z,41.13
2022-10-12T06:29:16.215Z,37.78
2022-10-12T06:32:17.749Z,40.45
2022-10-12T06:35:19.308Z,43.60
2022-10-12T06:38:20.978Z,32.45
2022-10-12T06:41:22.516Z,34.38
2022-10-12T06:44:24.135Z,27.80
2022-10-12T06:47:25.684Z,31.08
2022-10-12T06:50:27.401Z,37.75
2022-10-12T06:53:31.020Z,35.40
2022-10-12T06:56:32.553Z,38.38
2022-10-12T06:59:34.276Z,43.15
2022-10-12T07:02:36.278Z,46.88
2022-10-12T07:05:38.064Z,50.08
2022-10-12T07:08:41.128Z,45.53
2022-10-12T07:11:42.754Z,51.00
2022-10-12T07:14:44.388Z,39.67
2022-10-12T07:17:45.980Z,38.67
2022-10-12T07:20:47.664Z,38.47
2022-10-12T07:23:49.376Z,39.90
2022-10-12T07:26:51.729Z,47.08
2022-10-12T07:29:53.305Z,48.78
2022-10-12T07:32:54.875Z,36.42
2022-10-12T07:36:13.249Z,39.22
2022-10-12T07:39:15.829Z,39.13
2022-10-12T07:42:19.538Z,45.88
2022-10-12T07:45:22.170Z,41.55
2022-10-12T07:48:23.932Z,40.63
2022-10-12T07:51:25.541Z,33.30
2022-10-12T07:54:29.714Z,34.85
2022-10-12T07:57:31.344Z,31.90
2022-10-12T08:00:33.182Z,23.80
2022-10-12T08:03:35.457Z,30.02
2022-10-12T08:06:37.198Z,23.50
2022-10-12T08:09:38.825Z,21.38
2022-10-12T08:12:40.386Z,15.95
2022-10-12T08:15:50.332Z,19.15
2022-10-12T08:18:52.147Z,16.60
2022-10-12T08:21:53.781Z,22.17
2022-10-12T08:24:55.290Z,15.93
2022-10-12T08:27:58.413Z,13.63
2022-10-12T08:31:00.567Z,17.33
2022-10-12T08:34:02.242Z,13.63
2022-10-12T08:37:03.881Z,22.35
2022-10-12T08:40:06.136Z,16.88
2022-10-12T08:43:34.773Z,18.85
2022-10-12T08:46:36.428Z,15.48
2022-10-12T08:49:40.155Z,14.52
2022-10-12T08:52:48.900Z,19.90
2022-10-12T08:55:52.538Z,15.73
2022-10-12T08:58:54.950Z,17.92
2022-10-12T09:02:25.930Z,13.48
2022-10-12T09:05:38.192Z,12.40
2022-10-12T09:09:01.531Z,13.48
2022-10-12T09:12:24.635Z,11.00
2022-10-12T09:15:46.509Z,18.50
2022-10-12T09:18:55.124Z,10.10
2022-10-12T09:21:57.743Z,14.98
2022-10-12T09:25:00.523Z,11.93
2022-10-12T09:28:25.457Z,14.35
2022-10-12T09:31:52.146Z,14.23
2022-10-12T09:34:54.625Z,15.85
2022-10-12T09:37:56.256Z,17.55
2022-10-12T09:40:57.836Z,7.32
2022-10-12T09:44:02.498Z,15.80
2022-10-12T09:47:07.487Z,14.27
2022-10-12T09:50:09.104Z,13.85
2022-10-12T09:53:20.384Z,17.23
2022-10-12T09:56:30.263Z,17.80
2022-10-12T09:59:44.270Z,21.80
2022-10-12T10:02:51.205Z,16.60
2022-10-12T10:06:04.356Z,10.38
2022-10-12T10:09:32.387Z,12.18
2022-10-12T10:12:42.613Z,11.95
2022-10-12T10:15:49.715Z,18.27
2022-10-12T10:18:54.309Z,17.25
2022-10-12T10:21:56.503Z,18.42
2022-10-12T10:25:00.855Z,15.90
2022-10-12T10:28:23.861Z,14.43
2022-10-12T10:31:29.098Z,13.13
2022-10-12T10:34:30.829Z,13.48
2022-10-12T10:37:33.660Z,16.80
2022-10-12T10:40:35.389Z,19.77
2022-10-12T10:43:36.950Z,13.23
2022-10-12T10:46:46.001Z,10.50
2022-10-12T10:50:21.646Z,9.70
2022-10-12T10:53:25.528Z,11.32
2022-10-12T10:56:31.331Z,15.73
2022-10-12T10:59:45.706Z,15.85
2022-10-12T11:02:53.544Z,24.73
2022-10-12T11:06:12.305Z,9.50
2022-10-12T11:09:21.902Z,12.05
2022-10-12T11:12:46.867Z,12.38
2022-10-12T11:15:50.679Z,15.98
2022-10-12T11:18:58.660Z,15.50
2022-10-12T11:22:10.940Z,16.52
2022-10-12T11:25:44.461Z,15.00
2022-10-12T11:28:48.772Z,10.35
2022-10-12T11:31:56.215Z,11.13
2022-10-12T11:35:13.408Z,9.18
2022-10-12T11:38:26.826Z,11.68
2022-10-12T11:42:09.811Z,9.02
2022-10-12T11:45:34.189Z,8.98
2022-10-12T11:48:49.299Z,12.50
2022-10-12T11:51:53.500Z,12.57
2022-10-12T11:55:10.755Z,11.85
2022-10-12T11:58:36.429Z,13.02
2022-10-12T12:01:50.576Z,13.32
2022-10-12T12:04:53.327Z,16.83
2022-10-12T12:07:56.742Z,15.68
2022-10-12T12:11:26.049Z,13.35
2022-10-12T12:14:27.579Z,12.30
2022-10-12T12:17:32.385Z,10.52
2022-10-12T12:20:43.415Z,9.82
2022-10-12T12:23:52.679Z,9.77
2022-10-12T12:26:54.257Z,11.82
2022-10-12T12:29:57.669Z,15.35
2022-10-12T12:33:07.124Z,9.52
2022-10-12T12:36:12.734Z,12.90
2022-10-12T12:39:25.456Z,15.13
2022-10-12T12:42:32.009Z,12.63
2022-10-12T12:45:33.523Z,13.20
2022-10-12T12:48:44.470Z,14.85
2022-10-12T12:51:46.079Z,15.40
2022-10-12T12:55:09.924Z,14.88
2022-10-12T12:58:42.165Z,12.52
2022-10-12T13:02:21.681Z,9.77
2022-10-12T13:05:54.302Z,12.35
2022-10-12T13:09:28.134Z,17.42
2022-10-12T13:12:34.656Z,12.25
2022-10-12T13:16:04.612Z,12.30
2022-10-12T13:19:11.573Z,16.27
2022-10-12T13:22:18.956Z,15.85
2022-10-12T13:25:34.042Z,14.63
2022-10-12T13:28:43.330Z,13.88
2022-10-12T13:31:47.545Z,13.43
2022-10-12T13:34:52.350Z,11.55
2022-10-12T13:38:13.708Z,15.55
2022-10-12T13:41:18.733Z,11.70
2022-10-12T13:44:36.163Z,12.50
2022-10-12T13:47:43.059Z,15.82
2022-10-12T13:50:53.283Z,10.68
2022-10-12T13:53:55.325Z,14.00
2022-10-12T13:57:01.776Z,13.25
2022-10-12T14:00:18.602Z,15.32
2022-10-12T14:03:35.558Z,14.32
2022-10-12T14:06:38.178Z,13.32
2022-10-12T14:09:43.594Z,11.38
2022-10-12T14:12:46.708Z,12.57
2022-10-12T14:15:48.915Z,17.02
2022-10-12T14:18:50.931Z,12.88
2022-10-12T14:21:53.290Z,10.88
2022-10-12T14:25:18.246Z,28.90
2022-10-12T14:28:32.687Z,14.90
2022-10-12T14:31:48.654Z,15.57
2022-10-12T14:35:04.514Z,18.48
2022-10-12T14:38:28.618Z,15.35
2022-10-12T14:41:48.311Z,23.00
2022-10-12T14:44:50.590Z,16.27
2022-10-12T14:47:52.652Z,17.95
2022-10-12T14:50:54.447Z,17.58
2022-10-12T14:54:04.575Z,20.60
2022-10-12T14:57:15.037Z,15.93
2022-10-12T15:03:20.577Z,18.95
2022-10-12T15:06:22.156Z,18.95
2022-10-12T15:09:23.681Z,15.90
2022-10-12T15:12:26.503Z,23.05
2022-10-12T15:15:33.710Z,17.38
2022-10-12T15:18:35.262Z,15.68
2022-10-12T15:21:36.783Z,21.35
2022-10-12T15:24:38.345Z,20.20
2022-10-12T15:27:40.006Z,20.90
2022-10-12T15:31:04.209Z,18.00
2022-10-12T15:34:03.404Z,14.65
2022-10-12T15:37:08.866Z,13.55
2022-10-12T15:40:12.109Z,27.05
2022-10-12T15:43:13.835Z,28.88
2022-10-12T15:46:15.462Z,21.35
2022-10-12T15:49:19.778Z,21.20
2022-10-12T15:52:21.606Z,14.52
2022-10-12T15:55:29.204Z,22.02
2022-10-12T15:58:30.778Z,20.98
2022-10-12T16:01:34.687Z,23.23
2022-10-12T16:04:36.214Z,16.55
2022-10-12T16:07:37.759Z,18.92
2022-10-12T16:10:40.776Z,16.17
2022-10-12T16:13:49.963Z,16.15
2022-10-12T16:16:54.091Z,18.90
2022-10-12T16:19:55.642Z,22.02
2022-10-12T16:22:58.634Z,48.90
2022-10-12T16:26:04.606Z,20.35
2022-10-12T16:29:06.136Z,16.05
2022-10-12T16:32:07.694Z,21.85
2022-10-12T16:35:09.727Z,22.35
2022-10-12T16:38:11.825Z,18.90
2022-10-12T16:41:15.763Z,19.48
2022-10-12T16:44:17.330Z,21.90
2022-10-12T16:47:19.567Z,20.55
2022-10-12T16:50:22.870Z,23.10
2022-10-12T16:53:24.466Z,25.20
2022-10-12T16:56:26.364Z,42.55
2022-10-12T16:59:28.038Z,20.25
2022-10-12T17:02:29.667Z,18.48
2022-10-12T17:05:31.226Z,24.02
2022-10-12T17:08:36.034Z,28.27
2022-10-12T17:11:39.493Z,21.05
2022-10-12T17:14:41.159Z,23.35
2022-10-12T17:17:42.691Z,20.05
2022-10-12T17:20:44.309Z,29.92
2022-10-12T17:23:46.542Z,24.33
2022-10-12T17:26:48.412Z,26.27
2022-10-12T17:29:49.944Z,20.77
2022-10-12T17:32:51.508Z,25.48
2022-10-12T17:35:53.076Z,25.92
2022-10-12T17:38:56.477Z,23.42
2022-10-12T17:41:58.132Z,29.27
2022-10-12T17:44:59.724Z,27.23
2022-10-12T17:48:01.546Z,28.38
2022-10-12T17:51:09.260Z,25.73
2022-10-12T17:54:10.938Z,15.07
2022-10-12T17:57:12.564Z,29.10
2022-10-12T18:00:14.613Z,21.15
2022-10-12T18:03:16.241Z,37.13
2022-10-12T18:06:22.749Z,27.23
2022-10-12T18:09:24.317Z,31.65
2022-10-12T18:12:25.816Z,26.38
2022-10-12T18:15:27.377Z,24.30
2022-10-12T18:18:29.603Z,26.10
2022-10-12T18:21:32.468Z,24.20
2022-10-12T18:24:34.030Z,27.77
2022-10-12T18:27:35.639Z,28.38
2022-10-12T18:30:38.538Z,21.25
2022-10-12T18:33:40.054Z,28.77
2022-10-12T18:36:42.710Z,26.98
2022-10-12T18:39:44.287Z,21.60
2022-10-12T18:42:45.834Z,30.23
2022-10-12T18:45:47.350Z,23.48
2022-10-12T18:48:49.263Z,38.00
2022-10-12T18:51:52.549Z,30.83
2022-10-12T18:54:54.138Z,27.15
2022-10-12T18:57:55.725Z,33.25
2022-10-12T19:00:58.177Z,26.58
2022-10-12T19:04:01.064Z,30.73
2022-10-12T19:07:02.798Z,33.85
2022-10-12T19:10:08.432Z,33.42
2022-10-12T19:13:10.009Z,32.45
2022-10-12T19:16:14.920Z,31.77
2022-10-12T19:19:21.243Z,29.30
2022-10-12T19:22:23.260Z,26.85
2022-10-12T19:25:24.763Z,30.92
2022-10-12T19:28:26.362Z,30.13
2022-10-12T19:31:30.917Z,26.83
2022-10-12T19:34:32.500Z,34.05
2022-10-12T19:37:36.035Z,31.63
2022-10-12T19:40:37.845Z,30.17
2022-10-12T19:43:39.672Z,31.40
2022-10-12T19:46:42.579Z,27.83
2022-10-12T19:49:45.464Z,29.35
2022-10-12T19:52:47.235Z,25.98
2022-10-12T19:55:49.631Z,26.58
2022-10-12T19:58:52.668Z,28.63
2022-10-12T20:01:54.253Z,26.42
2022-10-12T20:04:56.003Z,23.55
2022-10-12T20:07:57.518Z,31.38
2022-10-12T20:10:59.064Z,28.38
2022-10-12T20:14:01.571Z,30.60
2022-10-12T20:17:03.191Z,27.90
2022-10-12T20:20:06.382Z,27.35
2022-10-12T20:23:08.029Z,32.72
2022-10-12T20:26:13.428Z,31.85
2022-10-12T20:29:14.992Z,27.02
2022-10-12T20:32:16.973Z,29.00
2022-10-12T20:35:18.662Z,26.10
2022-10-12T20:38:34.893Z,30.80
2022-10-12T20:41:36.567Z,25.90
2022-10-12T20:44:38.203Z,39.92
2022-10-12T20:47:41.254Z,29.50
2022-10-12T20:50:43.126Z,30.02
2022-10-12T20:53:50.184Z,26.38
2022-10-12T20:56:52.143Z,27.48
2022-10-12T20:59:56.897Z,29.98
2022-10-12T21:03:01.346Z,30.20
2022-10-12T21:06:08.680Z,28.15
2022-10-12T21:09:14.121Z,31.08
2022-10-12T21:12:16.074Z,22.25
2022-10-12T21:15:20.404Z,28.40
2022-10-12T21:18:26.871Z,32.28
2022-10-12T21:21:40.462Z,39.83
2022-10-12T21:24:45.153Z,38.17
2022-10-12T21:27:46.727Z,36.17
2022-10-12T21:30:49.566Z,33.30
2022-10-12T21:33:51.137Z,32.47
2022-10-12T21:36:52.944Z,31.55
2022-10-12T21:39:54.865Z,27.90
2022-10-12T21:43:06.572Z,30.95
2022-10-12T21:46:13.941Z,36.50
2022-10-12T21:49:15.808Z,37.22
2022-10-12T21:52:21.883Z,35.40
2022-10-12T21:55:23.749Z,40.03
2022-10-12T21:58:25.451Z,36.08
2022-10-12T22:01:30.080Z,35.10
2022-10-12T22:04:32.028Z,34.15
2022-10-12T22:07:33.751Z,33.53
2022-10-12T22:10:41.470Z,36.65
2022-10-12T22:13:42.997Z,32.10
2022-10-12T22:17:09.856Z,35.97
2022-10-12T22:27:25.775Z,34.42
2022-10-12T22:30:27.804Z,36.67
2022-10-12T22:33:32.284Z,33.95
2022-10-12T22:36:34.227Z,29.65
2022-10-12T22:39:35.823Z,39.38
2022-10-12T22:42:37.352Z,31.45
2022-10-12T22:45:39.676Z,34.67
2022-10-12T22:48:41.946Z,38.17
2022-10-12T22:51:51.678Z,30.70
2022-10-12T22:55:02.653Z,32.58
2022-10-12T22:58:10.406Z,32.97
2022-10-12T23:01:15.168Z,36.42
2022-10-12T23:04:22.703Z,36.22
2022-10-12T23:07:24.819Z,31.65
2022-10-12T23:10:27.207Z,34.28
2022-10-12T23:13:28.766Z,38.53
2022-10-12T23:16:32.000Z,33.33
2022-10-12T23:19:33.535Z,31.90
2022-10-12T23:22:35.115Z,29.92
2022-10-12T23:25:36.696Z,32.42
2022-10-12T23:28:38.405Z,34.72
2022-10-12T23:31:40.055Z,31.75
2022-10-12T23:34:41.971Z,27.40
2022-10-12T23:37:44.381Z,31.58
2022-10-12T23:40:45.973Z,33.78
2022-10-12T23:43:47.669Z,27.10
2022-10-12T23:46:49.223Z,27.08
2022-10-12T23:49:50.809Z,32.17
2022-10-12T23:52:52.349Z,25.08
2022-10-12T23:55:53.987Z,28.98
2022-10-12T23:58:55.704Z,24.40
